sensor_id;sensor_type;location;lat;lon;timestamp;P1;durP1;ratioP1;P2;durP2;ratioP2
82930;SDS011;72705;53.346;10.248;2023-10-08T00:04:15;18.05;;;4.97;;
82930;SDS011;72705;53.346;10.248;2023-10-08T00:06:44;9.68;;;3.75;;
82930;SDS011;72705;53.346;10.248;2023-10-08T00:09:10;13.57;;;3.90;;
82930;SDS011;72705;53.346;10.248;2023-10-08T00:11:36;16.70;;;4.25;;
82930;SDS011;72705;53.346;10.248;2023-10-08T00:14:06;14.25;;;4.25;;
82930;SDS011;72705;53.346;10.248;2023-10-08T00:16:36;12.57;;;3.58;;
82930;SDS011;72705;53.346;10.248;2023-10-08T00:19:05;10.65;;;4.07;;
82930;SDS011;72705;53.346;10.248;2023-10-08T00:21:38;15.98;;;3.55;;
82930;SDS011;72705;53.346;10.248;2023-10-08T00:24:04;12.82;;;3.80;;
82930;SDS011;72705;53.346;10.248;2023-10-08T00:26:34;14.23;;;4.18;;
82930;SDS011;72705;53.346;10.248;2023-10-08T00:29:05;15.68;;;5.13;;
82930;SDS011;72705;53.346;10.248;2023-10-08T00:31:31;14.25;;;4.47;;
82930;SDS011;72705;53.346;10.248;2023-10-08T00:34:07;10.90;;;3.58;;
82930;SDS011;72705;53.346;10.248;2023-10-08T00:36:43;14.93;;;4.93;;
82930;SDS011;72705;53.346;10.248;2023-10-08T00:39:11;13.98;;;4.53;;
82930;SDS011;72705;53.346;10.248;2023-10-08T00:41:45;12.05;;;4.70;;
82930;SDS011;72705;53.346;10.248;2023-10-08T00:44:12;11.80;;;4.30;;
82930;SDS011;72705;53.346;10.248;2023-10-08T00:46:48;13.05;;;4.15;;
82930;SDS011;72705;53.346;10.248;2023-10-08T00:49:19;13.43;;;4.20;;
82930;SDS011;72705;53.346;10.248;2023-10-08T00:51:52;11.35;;;4.03;;
82930;SDS011;72705;53.346;10.248;2023-10-08T00:54:33;16.20;;;5.35;;
82930;SDS011;72705;53.346;10.248;2023-10-08T00:57:06;14.93;;;3.95;;
82930;SDS011;72705;53.346;10.248;2023-10-08T00:59:33;15.50;;;4.47;;
82930;SDS011;72705;53.346;10.248;2023-10-08T01:02:09;9.75;;;4.03;;
82930;SDS011;72705;53.346;10.248;2023-10-08T01:04:39;11.63;;;4.45;;
82930;SDS011;72705;53.346;10.248;2023-10-08T01:07:07;14.80;;;4.50;;
82930;SDS011;72705;53.346;10.248;2023-10-08T01:09:37;16.45;;;4.57;;
82930;SDS011;72705;53.346;10.248;2023-10-08T01:14:40;15.00;;;4.13;;
82930;SDS011;72705;53.346;10.248;2023-10-08T01:17:12;15.23;;;4.75;;
82930;SDS011;72705;53.346;10.248;2023-10-08T01:19:40;15.00;;;4.10;;
82930;SDS011;72705;53.346;10.248;2023-10-08T01:22:07;16.02;;;4.30;;
82930;SDS011;72705;53.346;10.248;2023-10-08T01:24:38;17.35;;;5.45;;
82930;SDS011;72705;53.346;10.248;2023-10-08T01:27:03;19.10;;;5.03;;
82930;SDS011;72705;53.346;10.248;2023-10-08T01:29:30;12.85;;;4.72;;
82930;SDS011;72705;53.346;10.248;2023-10-08T01:31:57;17.27;;;4.47;;
82930;SDS011;72705;53.346;10.248;2023-10-08T01:34:23;13.70;;;4.00;;
82930;SDS011;72705;53.346;10.248;2023-10-08T01:37:01;17.25;;;4.55;;
82930;SDS011;72705;53.346;10.248;2023-10-08T01:39:33;16.52;;;4.90;;
82930;SDS011;72705;53.346;10.248;2023-10-08T01:41:59;9.90;;;4.43;;
82930;SDS011;72705;53.346;10.248;2023-10-08T01:44:24;10.20;;;3.83;;
82930;SDS011;72705;53.346;10.248;2023-10-08T01:46:49;11.75;;;4.75;;
82930;SDS011;72705;53.346;10.248;2023-10-08T01:49:15;16.42;;;4.63;;
82930;SDS011;72705;53.346;10.248;2023-10-08T01:51:42;12.88;;;4.35;;
82930;SDS011;72705;53.346;10.248;2023-10-08T01:54:20;10.73;;;4.55;;
82930;SDS011;72705;53.346;10.248;2023-10-08T01:56:46;12.68;;;4.35;;
82930;SDS011;72705;53.346;10.248;2023-10-08T01:59:12;14.93;;;5.30;;
82930;SDS011;72705;53.346;10.248;2023-10-08T02:01:40;12.60;;;4.57;;
82930;SDS011;72705;53.346;10.248;2023-10-08T02:04:07;10.00;;;3.95;;
82930;SDS011;72705;53.346;10.248;2023-10-08T02:06:33;11.05;;;5.20;;
82930;SDS011;72705;53.346;10.248;2023-10-08T02:08:59;13.95;;;3.55;;
82930;SDS011;72705;53.346;10.248;2023-10-08T02:11:24;11.70;;;3.70;;
82930;SDS011;72705;53.346;10.248;2023-10-08T02:13:52;7.95;;;3.72;;
82930;SDS011;72705;53.346;10.248;2023-10-08T02:16:18;12.88;;;4.22;;
82930;SDS011;72705;53.346;10.248;2023-10-08T02:18:44;12.02;;;4.63;;
82930;SDS011;72705;53.346;10.248;2023-10-08T02:21:11;13.90;;;4.05;;
82930;SDS011;72705;53.346;10.248;2023-10-08T02:23:36;12.98;;;4.55;;
82930;SDS011;72705;53.346;10.248;2023-10-08T02:26:02;17.17;;;5.47;;
82930;SDS011;72705;53.346;10.248;2023-10-08T02:28:27;9.10;;;4.00;;
82930;SDS011;72705;53.346;10.248;2023-10-08T02:30:54;12.32;;;3.67;;
82930;SDS011;72705;53.346;10.248;2023-10-08T02:33:19;16.20;;;4.47;;
82930;SDS011;72705;53.346;10.248;2023-10-08T02:35:45;16.08;;;4.38;;
82930;SDS011;72705;53.346;10.248;2023-10-08T02:38:12;13.25;;;5.70;;
82930;SDS011;72705;53.346;10.248;2023-10-08T02:40:38;14.70;;;4.40;;
82930;SDS011;72705;53.346;10.248;2023-10-08T02:43:14;11.70;;;3.85;;
82930;SDS011;72705;53.346;10.248;2023-10-08T02:45:41;9.95;;;4.10;;
82930;SDS011;72705;53.346;10.248;2023-10-08T02:48:12;9.32;;;3.97;;
82930;SDS011;72705;53.346;10.248;2023-10-08T02:50:41;12.45;;;4.50;;
82930;SDS011;72705;53.346;10.248;2023-10-08T02:53:07;11.77;;;5.20;;
82930;SDS011;72705;53.346;10.248;2023-10-08T02:55:37;14.05;;;4.15;;
82930;SDS011;72705;53.346;10.248;2023-10-08T02:58:08;8.63;;;3.88;;
82930;SDS011;72705;53.346;10.248;2023-10-08T03:00:43;13.13;;;4.40;;
82930;SDS011;72705;53.346;10.248;2023-10-08T03:03:11;12.90;;;4.22;;
82930;SDS011;72705;53.346;10.248;2023-10-08T03:05:41;8.45;;;3.58;;
82930;SDS011;72705;53.346;10.248;2023-10-08T03:13:04;10.82;;;4.05;;
82930;SDS011;72705;53.346;10.248;2023-10-08T03:15:31;13.15;;;4.90;;
82930;SDS011;72705;53.346;10.248;2023-10-08T03:18:04;11.63;;;3.80;;
82930;SDS011;72705;53.346;10.248;2023-10-08T03:20:39;14.27;;;3.75;;
82930;SDS011;72705;53.346;10.248;2023-10-08T03:23:09;14.05;;;3.92;;
82930;SDS011;72705;53.346;10.248;2023-10-08T03:28:28;9.45;;;3.75;;
82930;SDS011;72705;53.346;10.248;2023-10-08T03:33:52;12.40;;;3.30;;
82930;SDS011;72705;53.346;10.248;2023-10-08T03:36:18;10.27;;;3.63;;
82930;SDS011;72705;53.346;10.248;2023-10-08T03:38:48;9.18;;;3.65;;
82930;SDS011;72705;53.346;10.248;2023-10-08T03:41:17;11.70;;;3.60;;
82930;SDS011;72705;53.346;10.248;2023-10-08T03:43:55;9.70;;;3.75;;
82930;SDS011;72705;53.346;10.248;2023-10-08T03:46:30;14.38;;;3.85;;
82930;SDS011;72705;53.346;10.248;2023-10-08T03:48:57;8.88;;;3.20;;
82930;SDS011;72705;53.346;10.248;2023-10-08T03:51:29;12.45;;;3.13;;
82930;SDS011;72705;53.346;10.248;2023-10-08T03:54:00;16.90;;;3.50;;
82930;SDS011;72705;53.346;10.248;2023-10-08T03:56:34;11.38;;;3.42;;
82930;SDS011;72705;53.346;10.248;2023-10-08T03:59:01;8.73;;;3.50;;
82930;SDS011;72705;53.346;10.248;2023-10-08T04:01:50;11.90;;;3.72;;
82930;SDS011;72705;53.346;10.248;2023-10-08T04:04:20;8.63;;;3.55;;
82930;SDS011;72705;53.346;10.248;2023-10-08T04:06:49;14.20;;;3.75;;
82930;SDS011;72705;53.346;10.248;2023-10-08T04:09:16;11.32;;;3.50;;
82930;SDS011;72705;53.346;10.248;2023-10-08T04:11:51;12.55;;;3.40;;
82930;SDS011;72705;53.346;10.248;2023-10-08T04:14:17;12.23;;;3.65;;
82930;SDS011;72705;53.346;10.248;2023-10-08T04:16:45;8.05;;;3.40;;
82930;SDS011;72705;53.346;10.248;2023-10-08T04:19:11;10.95;;;3.60;;
82930;SDS011;72705;53.346;10.248;2023-10-08T04:21:38;11.10;;;3.35;;
82930;SDS011;72705;53.346;10.248;2023-10-08T04:24:10;9.55;;;3.05;;
82930;SDS011;72705;53.346;10.248;2023-10-08T04:26:39;10.50;;;3.80;;
82930;SDS011;72705;53.346;10.248;2023-10-08T04:29:07;11.93;;;3.47;;
82930;SDS011;72705;53.346;10.248;2023-10-08T04:31:33;9.48;;;3.47;;
82930;SDS011;72705;53.346;10.248;2023-10-08T04:34:04;10.00;;;3.63;;
82930;SDS011;72705;53.346;10.248;2023-10-08T04:36:47;10.18;;;3.50;;
82930;SDS011;72705;53.346;10.248;2023-10-08T04:39:19;11.65;;;3.55;;
82930;SDS011;72705;53.346;10.248;2023-10-08T04:42:03;8.32;;;3.42;;
82930;SDS011;72705;53.346;10.248;2023-10-08T04:44:39;10.55;;;3.20;;
82930;SDS011;72705;53.346;10.248;2023-10-08T04:47:08;19.45;;;3.65;;
82930;SDS011;72705;53.346;10.248;2023-10-08T04:49:35;8.02;;;3.53;;
82930;SDS011;72705;53.346;10.248;2023-10-08T04:52:10;8.48;;;3.83;;
82930;SDS011;72705;53.346;10.248;2023-10-08T04:54:43;6.88;;;2.60;;
82930;SDS011;72705;53.346;10.248;2023-10-08T04:57:16;7.47;;;3.05;;
82930;SDS011;72705;53.346;10.248;2023-10-08T04:59:42;11.80;;;4.00;;
82930;SDS011;72705;53.346;10.248;2023-10-08T05:02:08;12.60;;;3.60;;
82930;SDS011;72705;53.346;10.248;2023-10-08T05:04:54;8.23;;;2.80;;
82930;SDS011;72705;53.346;10.248;2023-10-08T05:07:22;13.43;;;2.75;;
82930;SDS011;72705;53.346;10.248;2023-10-08T05:10:08;10.10;;;3.00;;
82930;SDS011;72705;53.346;10.248;2023-10-08T05:12:33;13.23;;;3.42;;
82930;SDS011;72705;53.346;10.248;2023-10-08T05:15:18;11.02;;;3.22;;
82930;SDS011;72705;53.346;10.248;2023-10-08T05:17:47;9.13;;;2.65;;
82930;SDS011;72705;53.346;10.248;2023-10-08T05:20:19;12.93;;;3.00;;
82930;SDS011;72705;53.346;10.248;2023-10-08T05:23:09;7.55;;;3.08;;
82930;SDS011;72705;53.346;10.248;2023-10-08T05:25:52;8.10;;;2.85;;
82930;SDS011;72705;53.346;10.248;2023-10-08T05:28:37;8.10;;;2.97;;
82930;SDS011;72705;53.346;10.248;2023-10-08T05:31:22;6.70;;;2.80;;
82930;SDS011;72705;53.346;10.248;2023-10-08T05:34:08;8.07;;;3.05;;
82930;SDS011;72705;53.346;10.248;2023-10-08T05:36:46;10.93;;;3.25;;
82930;SDS011;72705;53.346;10.248;2023-10-08T05:39:30;11.57;;;3.10;;
82930;SDS011;72705;53.346;10.248;2023-10-08T05:42:05;8.52;;;2.85;;
82930;SDS011;72705;53.346;10.248;2023-10-08T05:45:07;9.55;;;2.72;;
82930;SDS011;72705;53.346;10.248;2023-10-08T05:47:39;8.05;;;2.92;;
82930;SDS011;72705;53.346;10.248;2023-10-08T05:50:17;8.68;;;2.92;;
82930;SDS011;72705;53.346;10.248;2023-10-08T05:52:46;6.75;;;2.80;;
82930;SDS011;72705;53.346;10.248;2023-10-08T05:55:18;7.90;;;2.95;;
82930;SDS011;72705;53.346;10.248;2023-10-08T05:57:51;11.10;;;3.40;;
82930;SDS011;72705;53.346;10.248;2023-10-08T06:00:46;8.15;;;2.97;;
82930;SDS011;72705;53.346;10.248;2023-10-08T06:03:19;6.65;;;3.13;;
82930;SDS011;72705;53.346;10.248;2023-10-08T06:06:07;8.27;;;2.72;;
82930;SDS011;72705;53.346;10.248;2023-10-08T06:08:42;6.50;;;3.13;;
82930;SDS011;72705;53.346;10.248;2023-10-08T06:11:17;9.65;;;3.20;;
82930;SDS011;72705;53.346;10.248;2023-10-08T06:14:04;7.18;;;3.13;;
82930;SDS011;72705;53.346;10.248;2023-10-08T06:16:44;9.60;;;3.10;;
82930;SDS011;72705;53.346;10.248;2023-10-08T06:19:12;7.15;;;3.03;;
82930;SDS011;72705;53.346;10.248;2023-10-08T06:21:39;12.48;;;3.30;;
82930;SDS011;72705;53.346;10.248;2023-10-08T06:24:06;5.28;;;3.20;;
82930;SDS011;72705;53.346;10.248;2023-10-08T06:26:38;7.97;;;3.03;;
82930;SDS011;72705;53.346;10.248;2023-10-08T06:29:13;11.95;;;2.92;;
82930;SDS011;72705;53.346;10.248;2023-10-08T06:31:52;8.05;;;3.83;;
82930;SDS011;72705;53.346;10.248;2023-10-08T06:34:21;10.75;;;3.30;;
82930;SDS011;72705;53.346;10.248;2023-10-08T06:36:49;5.10;;;2.80;;
82930;SDS011;72705;53.346;10.248;2023-10-08T06:39:19;13.55;;;3.10;;
82930;SDS011;72705;53.346;10.248;2023-10-08T06:41:51;9.02;;;3.15;;
82930;SDS011;72705;53.346;10.248;2023-10-08T06:44:18;9.27;;;3.20;;
82930;SDS011;72705;53.346;10.248;2023-10-08T06:46:43;12.75;;;3.63;;
82930;SDS011;72705;53.346;10.248;2023-10-08T06:49:09;8.32;;;2.90;;
82930;SDS011;72705;53.346;10.248;2023-10-08T06:51:38;9.85;;;3.25;;
82930;SDS011;72705;53.346;10.248;2023-10-08T06:54:04;11.77;;;3.08;;
82930;SDS011;72705;53.346;10.248;2023-10-08T06:56:34;11.52;;;3.33;;
82930;SDS011;72705;53.346;10.248;2023-10-08T06:59:00;10.70;;;3.67;;
82930;SDS011;72705;53.346;10.248;2023-10-08T07:01:26;6.00;;;2.85;;
82930;SDS011;72705;53.346;10.248;2023-10-08T07:04:04;13.27;;;3.08;;
82930;SDS011;72705;53.346;10.248;2023-10-08T07:06:39;12.13;;;4.28;;
82930;SDS011;72705;53.346;10.248;2023-10-08T07:09:06;7.10;;;2.70;;
82930;SDS011;72705;53.346;10.248;2023-10-08T07:11:47;7.13;;;3.03;;
82930;SDS011;72705;53.346;10.248;2023-10-08T07:14:14;11.73;;;3.03;;
82930;SDS011;72705;53.346;10.248;2023-10-08T07:16:40;6.05;;;2.78;;
82930;SDS011;72705;53.346;10.248;2023-10-08T07:19:07;7.00;;;2.80;;
82930;SDS011;72705;53.346;10.248;2023-10-08T07:21:43;8.52;;;2.92;;
82930;SDS011;72705;53.346;10.248;2023-10-08T07:24:13;10.68;;;2.50;;
82930;SDS011;72705;53.346;10.248;2023-10-08T07:26:47;10.23;;;2.90;;
82930;SDS011;72705;53.346;10.248;2023-10-08T07:29:14;8.43;;;3.08;;
82930;SDS011;72705;53.346;10.248;2023-10-08T07:31:47;6.20;;;3.45;;
82930;SDS011;72705;53.346;10.248;2023-10-08T07:34:18;8.52;;;3.08;;
82930;SDS011;72705;53.346;10.248;2023-10-08T07:36:51;7.60;;;2.90;;
82930;SDS011;72705;53.346;10.248;2023-10-08T07:39:19;6.03;;;2.70;;
82930;SDS011;72705;53.346;10.248;2023-10-08T07:41:52;6.18;;;2.22;;
82930;SDS011;72705;53.346;10.248;2023-10-08T07:44:19;9.52;;;2.83;;
82930;SDS011;72705;53.346;10.248;2023-10-08T07:46:51;8.45;;;2.90;;
82930;SDS011;72705;53.346;10.248;2023-10-08T07:49:21;8.73;;;3.00;;
82930;SDS011;72705;53.346;10.248;2023-10-08T07:51:56;4.70;;;2.55;;
82930;SDS011;72705;53.346;10.248;2023-10-08T07:54:25;6.57;;;2.70;;
82930;SDS011;72705;53.346;10.248;2023-10-08T07:56:54;7.70;;;2.38;;
82930;SDS011;72705;53.346;10.248;2023-10-08T07:59:35;18.55;;;4.70;;
82930;SDS011;72705;53.346;10.248;2023-10-08T08:02:03;8.60;;;3.25;;
82930;SDS011;72705;53.346;10.248;2023-10-08T08:04:35;9.35;;;3.13;;
82930;SDS011;72705;53.346;10.248;2023-10-08T08:07:06;4.10;;;2.05;;
82930;SDS011;72705;53.346;10.248;2023-10-08T08:09:32;6.68;;;2.38;;
82930;SDS011;72705;53.346;10.248;2023-10-08T08:12:06;4.05;;;2.35;;
82930;SDS011;72705;53.346;10.248;2023-10-08T08:14:36;8.25;;;2.63;;
82930;SDS011;72705;53.346;10.248;2023-10-08T08:17:06;8.30;;;2.33;;
82930;SDS011;72705;53.346;10.248;2023-10-08T08:19:41;9.32;;;2.65;;
82930;SDS011;72705;53.346;10.248;2023-10-08T08:22:09;10.48;;;3.05;;
82930;SDS011;72705;53.346;10.248;2023-10-08T08:24:40;6.03;;;2.13;;
82930;SDS011;72705;53.346;10.248;2023-10-08T08:27:10;6.15;;;2.00;;
82930;SDS011;72705;53.346;10.248;2023-10-08T08:29:50;8.52;;;2.20;;
82930;SDS011;72705;53.346;10.248;2023-10-08T08:32:17;4.75;;;1.80;;
82930;SDS011;72705;53.346;10.248;2023-10-08T08:34:47;4.78;;;2.13;;
82930;SDS011;72705;53.346;10.248;2023-10-08T08:37:16;6.68;;;2.00;;
82930;SDS011;72705;53.346;10.248;2023-10-08T08:39:41;5.45;;;1.80;;
82930;SDS011;72705;53.346;10.248;2023-10-08T08:42:07;5.25;;;2.03;;
82930;SDS011;72705;53.346;10.248;2023-10-08T08:44:39;5.40;;;1.80;;
82930;SDS011;72705;53.346;10.248;2023-10-08T08:47:12;5.10;;;2.00;;
82930;SDS011;72705;53.346;10.248;2023-10-08T08:49:45;5.68;;;1.90;;
82930;SDS011;72705;53.346;10.248;2023-10-08T08:52:12;6.32;;;2.38;;
82930;SDS011;72705;53.346;10.248;2023-10-08T08:54:39;5.43;;;2.22;;
82930;SDS011;72705;53.346;10.248;2023-10-08T08:57:07;3.72;;;1.90;;
82930;SDS011;72705;53.346;10.248;2023-10-08T08:59:38;6.25;;;2.03;;
82930;SDS011;72705;53.346;10.248;2023-10-08T09:02:11;4.50;;;2.03;;
82930;SDS011;72705;53.346;10.248;2023-10-08T09:04:40;4.68;;;2.10;;
82930;SDS011;72705;53.346;10.248;2023-10-08T09:07:06;6.15;;;2.00;;
82930;SDS011;72705;53.346;10.248;2023-10-08T09:09:33;5.35;;;2.65;;
82930;SDS011;72705;53.346;10.248;2023-10-08T09:14:30;4.18;;;2.05;;
82930;SDS011;72705;53.346;10.248;2023-10-08T09:16:57;4.22;;;2.45;;
82930;SDS011;72705;53.346;10.248;2023-10-08T09:19:24;8.45;;;2.03;;
82930;SDS011;72705;53.346;10.248;2023-10-08T09:24:32;5.35;;;2.25;;
82930;SDS011;72705;53.346;10.248;2023-10-08T09:27:01;4.50;;;1.92;;
82930;SDS011;72705;53.346;10.248;2023-10-08T09:29:31;4.25;;;1.80;;
82930;SDS011;72705;53.346;10.248;2023-10-08T09:31:57;4.75;;;1.83;;
82930;SDS011;72705;53.346;10.248;2023-10-08T09:34:26;4.50;;;2.05;;
82930;SDS011;72705;53.346;10.248;2023-10-08T09:36:55;3.45;;;1.70;;
82930;SDS011;72705;53.346;10.248;2023-10-08T09:39:24;6.28;;;1.88;;
82930;SDS011;72705;53.346;10.248;2023-10-08T09:41:53;4.15;;;1.63;;
82930;SDS011;72705;53.346;10.248;2023-10-08T09:44:21;2.58;;;1.88;;
82930;SDS011;72705;53.346;10.248;2023-10-08T09:46:52;4.60;;;1.90;;
82930;SDS011;72705;53.346;10.248;2023-10-08T09:49:32;4.63;;;1.95;;
82930;SDS011;72705;53.346;10.248;2023-10-08T09:52:03;6.72;;;1.90;;
82930;SDS011;72705;53.346;10.248;2023-10-08T09:54:31;5.35;;;1.70;;
82930;SDS011;72705;53.346;10.248;2023-10-08T09:57:10;4.03;;;1.75;;
82930;SDS011;72705;53.346;10.248;2023-10-08T09:59:36;8.48;;;1.67;;
82930;SDS011;72705;53.346;10.248;2023-10-08T10:02:03;5.40;;;1.83;;
82930;SDS011;72705;53.346;10.248;2023-10-08T10:04:30;3.33;;;1.65;;
82930;SDS011;72705;53.346;10.248;2023-10-08T10:06:58;3.17;;;1.73;;
82930;SDS011;72705;53.346;10.248;2023-10-08T10:09:32;4.60;;;1.80;;
82930;SDS011;72705;53.346;10.248;2023-10-08T10:12:01;3.75;;;1.52;;
82930;SDS011;72705;53.346;10.248;2023-10-08T10:14:27;4.00;;;1.65;;
82930;SDS011;72705;53.346;10.248;2023-10-08T10:17:20;2.03;;;1.27;;
82930;SDS011;72705;53.346;10.248;2023-10-08T10:19:57;5.30;;;1.73;;
82930;SDS011;72705;53.346;10.248;2023-10-08T10:22:32;1.48;;;1.30;;
82930;SDS011;72705;53.346;10.248;2023-10-08T10:25:01;3.33;;;1.80;;
82930;SDS011;72705;53.346;10.248;2023-10-08T10:27:41;4.05;;;1.92;;
82930;SDS011;72705;53.346;10.248;2023-10-08T10:30:16;3.15;;;1.65;;
82930;SDS011;72705;53.346;10.248;2023-10-08T10:32:44;4.25;;;2.28;;
82930;SDS011;72705;53.346;10.248;2023-10-08T10:35:14;3.58;;;1.75;;
82930;SDS011;72705;53.346;10.248;2023-10-08T10:37:43;3.63;;;1.50;;
82930;SDS011;72705;53.346;10.248;2023-10-08T10:40:21;4.32;;;2.38;;
82930;SDS011;72705;53.346;10.248;2023-10-08T10:43:05;3.40;;;1.70;;
82930;SDS011;72705;53.346;10.248;2023-10-08T10:45:32;4.88;;;2.17;;
82930;SDS011;72705;53.346;10.248;2023-10-08T10:48:02;4.75;;;2.03;;
82930;SDS011;72705;53.346;10.248;2023-10-08T10:50:47;3.25;;;1.70;;
82930;SDS011;72705;53.346;10.248;2023-10-08T10:53:33;2.22;;;1.52;;
82930;SDS011;72705;53.346;10.248;2023-10-08T10:56:24;2.85;;;1.58;;
82930;SDS011;72705;53.346;10.248;2023-10-08T10:58:59;5.68;;;2.47;;
82930;SDS011;72705;53.346;10.248;2023-10-08T11:01:26;2.22;;;1.70;;
82930;SDS011;72705;53.346;10.248;2023-10-08T11:03:55;4.20;;;1.83;;
82930;SDS011;72705;53.346;10.248;2023-10-08T11:06:25;2.42;;;1.50;;
82930;SDS011;72705;53.346;10.248;2023-10-08T11:08:51;2.63;;;1.52;;
82930;SDS011;72705;53.346;10.248;2023-10-08T11:11:18;4.88;;;1.90;;
82930;SDS011;72705;53.346;10.248;2023-10-08T11:13:44;4.60;;;1.75;;
82930;SDS011;72705;53.346;10.248;2023-10-08T11:16:17;3.63;;;1.70;;
82930;SDS011;72705;53.346;10.248;2023-10-08T11:21:16;5.32;;;1.80;;
82930;SDS011;72705;53.346;10.248;2023-10-08T11:23:47;4.15;;;1.80;;
82930;SDS011;72705;53.346;10.248;2023-10-08T11:26:37;3.95;;;1.80;;
82930;SDS011;72705;53.346;10.248;2023-10-08T11:29:19;3.42;;;1.70;;
82930;SDS011;72705;53.346;10.248;2023-10-08T11:31:51;4.78;;;2.17;;
82930;SDS011;72705;53.346;10.248;2023-10-08T11:34:16;4.60;;;1.98;;
82930;SDS011;72705;53.346;10.248;2023-10-08T11:36:44;3.83;;;1.90;;
82930;SDS011;72705;53.346;10.248;2023-10-08T11:39:18;3.55;;;1.70;;
82930;SDS011;72705;53.346;10.248;2023-10-08T11:41:59;4.93;;;1.85;;
82930;SDS011;72705;53.346;10.248;2023-10-08T11:44:30;3.97;;;2.00;;
82930;SDS011;72705;53.346;10.248;2023-10-08T11:46:56;5.68;;;1.95;;
82930;SDS011;72705;53.346;10.248;2023-10-08T11:49:30;3.45;;;1.85;;
82930;SDS011;72705;53.346;10.248;2023-10-08T11:52:01;4.40;;;2.13;;
82930;SDS011;72705;53.346;10.248;2023-10-08T11:54:27;4.35;;;1.80;;
82930;SDS011;72705;53.346;10.248;2023-10-08T11:56:53;4.20;;;1.63;;
82930;SDS011;72705;53.346;10.248;2023-10-08T11:59:20;5.65;;;1.90;;
82930;SDS011;72705;53.346;10.248;2023-10-08T12:01:45;6.70;;;2.10;;
82930;SDS011;72705;53.346;10.248;2023-10-08T12:04:12;4.20;;;1.70;;
82930;SDS011;72705;53.346;10.248;2023-10-08T12:06:42;5.97;;;2.90;;
82930;SDS011;72705;53.346;10.248;2023-10-08T12:09:18;3.75;;;1.70;;
82930;SDS011;72705;53.346;10.248;2023-10-08T12:11:47;2.70;;;1.70;;
82930;SDS011;72705;53.346;10.248;2023-10-08T12:14:12;4.40;;;1.80;;
82930;SDS011;72705;53.346;10.248;2023-10-08T12:16:39;4.95;;;1.88;;
82930;SDS011;72705;53.346;10.248;2023-10-08T12:19:06;3.55;;;1.70;;
82930;SDS011;72705;53.346;10.248;2023-10-08T12:21:40;3.63;;;1.88;;
82930;SDS011;72705;53.346;10.248;2023-10-08T12:24:06;6.15;;;2.03;;
82930;SDS011;72705;53.346;10.248;2023-10-08T12:26:35;4.93;;;2.00;;
82930;SDS011;72705;53.346;10.248;2023-10-08T12:29:01;3.35;;;1.80;;
82930;SDS011;72705;53.346;10.248;2023-10-08T12:31:27;5.32;;;1.90;;
82930;SDS011;72705;53.346;10.248;2023-10-08T12:33:54;4.88;;;1.73;;
82930;SDS011;72705;53.346;10.248;2023-10-08T12:38:48;6.82;;;1.70;;
82930;SDS011;72705;53.346;10.248;2023-10-08T12:41:16;4.95;;;1.92;;
82930;SDS011;72705;53.346;10.248;2023-10-08T12:43:51;4.28;;;1.90;;
82930;SDS011;72705;53.346;10.248;2023-10-08T12:46:18;4.72;;;1.50;;
82930;SDS011;72705;53.346;10.248;2023-10-08T12:48:48;4.43;;;1.70;;
82930;SDS011;72705;53.346;10.248;2023-10-08T12:51:17;6.32;;;1.98;;
82930;SDS011;72705;53.346;10.248;2023-10-08T12:53:44;3.55;;;1.58;;
82930;SDS011;72705;53.346;10.248;2023-10-08T12:59:25;4.18;;;1.40;;
82930;SDS011;72705;53.346;10.248;2023-10-08T13:01:55;5.10;;;2.00;;
82930;SDS011;72705;53.346;10.248;2023-10-08T13:04:20;4.60;;;1.88;;
82930;SDS011;72705;53.346;10.248;2023-10-08T13:06:56;3.08;;;1.65;;
82930;SDS011;72705;53.346;10.248;2023-10-08T13:12:13;3.67;;;1.50;;
82930;SDS011;72705;53.346;10.248;2023-10-08T13:14:40;4.13;;;2.10;;
82930;SDS011;72705;53.346;10.248;2023-10-08T13:17:07;5.82;;;1.73;;
82930;SDS011;72705;53.346;10.248;2023-10-08T13:19:37;5.32;;;1.90;;
82930;SDS011;72705;53.346;10.248;2023-10-08T13:22:03;4.30;;;2.13;;
82930;SDS011;72705;53.346;10.248;2023-10-08T13:24:34;3.25;;;1.70;;
82930;SDS011;72705;53.346;10.248;2023-10-08T13:27:06;5.55;;;1.90;;
82930;SDS011;72705;53.346;10.248;2023-10-08T13:29:31;5.35;;;1.85;;
82930;SDS011;72705;53.346;10.248;2023-10-08T13:31:58;5.15;;;1.98;;
82930;SDS011;72705;53.346;10.248;2023-10-08T13:34:23;3.90;;;1.73;;
82930;SDS011;72705;53.346;10.248;2023-10-08T13:36:59;2.35;;;1.77;;
82930;SDS011;72705;53.346;10.248;2023-10-08T13:39:25;5.10;;;2.13;;
82930;SDS011;72705;53.346;10.248;2023-10-08T13:41:53;6.05;;;3.30;;
82930;SDS011;72705;53.346;10.248;2023-10-08T13:44:28;5.57;;;2.00;;
82930;SDS011;72705;53.346;10.248;2023-10-08T13:46:56;4.82;;;1.98;;
82930;SDS011;72705;53.346;10.248;2023-10-08T13:49:26;3.92;;;1.90;;
82930;SDS011;72705;53.346;10.248;2023-10-08T13:51:52;5.20;;;1.92;;
82930;SDS011;72705;53.346;10.248;2023-10-08T13:54:24;4.75;;;2.10;;
82930;SDS011;72705;53.346;10.248;2023-10-08T13:56:55;4.30;;;2.20;;
82930;SDS011;72705;53.346;10.248;2023-10-08T13:59:21;4.85;;;2.10;;
82930;SDS011;72705;53.346;10.248;2023-10-08T14:01:49;3.92;;;1.70;;
82930;SDS011;72705;53.346;10.248;2023-10-08T14:04:20;4.53;;;1.70;;
82930;SDS011;72705;53.346;10.248;2023-10-08T14:06:51;4.72;;;2.00;;
82930;SDS011;72705;53.346;10.248;2023-10-08T14:09:18;3.33;;;1.90;;
82930;SDS011;72705;53.346;10.248;2023-10-08T14:11:56;3.53;;;1.95;;
82930;SDS011;72705;53.346;10.248;2023-10-08T14:14:21;2.60;;;1.80;;
82930;SDS011;72705;53.346;10.248;2023-10-08T14:16:49;3.58;;;2.10;;
82930;SDS011;72705;53.346;10.248;2023-10-08T14:19:19;3.83;;;2.00;;
82930;SDS011;72705;53.346;10.248;2023-10-08T14:21:53;2.15;;;1.48;;
82930;SDS011;72705;53.346;10.248;2023-10-08T14:24:19;4.45;;;2.13;;
82930;SDS011;72705;53.346;10.248;2023-10-08T14:26:45;2.60;;;1.75;;
82930;SDS011;72705;53.346;10.248;2023-10-08T14:29:19;4.47;;;2.40;;
82930;SDS011;72705;53.346;10.248;2023-10-08T14:31:45;3.33;;;1.70;;
82930;SDS011;72705;53.346;10.248;2023-10-08T14:36:45;4.68;;;2.00;;
82930;SDS011;72705;53.346;10.248;2023-10-08T14:39:33;2.90;;;1.73;;
82930;SDS011;72705;53.346;10.248;2023-10-08T14:42:18;3.47;;;1.67;;
82930;SDS011;72705;53.346;10.248;2023-10-08T14:45:05;3.30;;;1.73;;
82930;SDS011;72705;53.346;10.248;2023-10-08T14:47:38;2.97;;;1.67;;
82930;SDS011;72705;53.346;10.248;2023-10-08T14:50:07;4.47;;;1.73;;
82930;SDS011;72705;53.346;10.248;2023-10-08T14:52:41;5.80;;;2.60;;
82930;SDS011;72705;53.346;10.248;2023-10-08T14:55:08;3.63;;;1.70;;
82930;SDS011;72705;53.346;10.248;2023-10-08T14:57:33;4.80;;;1.70;;
82930;SDS011;72705;53.346;10.248;2023-10-08T14:59:59;4.72;;;2.63;;
82930;SDS011;72705;53.346;10.248;2023-10-08T15:02:24;4.13;;;1.65;;
82930;SDS011;72705;53.346;10.248;2023-10-08T15:04:54;4.57;;;1.65;;
82930;SDS011;72705;53.346;10.248;2023-10-08T15:07:21;4.10;;;2.00;;
82930;SDS011;72705;53.346;10.248;2023-10-08T15:09:47;4.75;;;1.83;;
82930;SDS011;72705;53.346;10.248;2023-10-08T15:12:14;3.35;;;1.92;;
82930;SDS011;72705;53.346;10.248;2023-10-08T15:14:42;5.68;;;1.92;;
82930;SDS011;72705;53.346;10.248;2023-10-08T15:17:07;4.32;;;2.00;;
82930;SDS011;72705;53.346;10.248;2023-10-08T15:19:34;5.50;;;2.20;;
82930;SDS011;72705;53.346;10.248;2023-10-08T15:21:59;4.45;;;1.77;;
82930;SDS011;72705;53.346;10.248;2023-10-08T15:24:26;4.32;;;1.70;;
82930;SDS011;72705;53.346;10.248;2023-10-08T15:26:52;3.17;;;1.58;;